OEDF/DMM METAR and TAF weather

Enter ICAO airport designator
Station Type Date Time Source
OEDF METAR 2020/12/05 05:00 UTC NOAA

OEDF 050500Z 34005KT 9999 FEW040 SCT100 22/21 Q1016 RERA NOSIG


Station Type Date Time Source
OEDF Decoded METAR 2020/12/05 05:00 UTC NOAA

Dammam-King Fahd International Airport, Saudi Arabia (OEDF) 26-28N 049-47E
Dec 05, 2020 - 12:00 AM EST / 2020.12.05 0500 UTC
Wind: from the NNW (340 degrees) at 6 MPH (5 KT):0
Visibility: greater than 7 mile(s):0
Sky conditions: partly cloudy
Temperature: 71 F (22 C)
Dew Point: 69 F (21 C)
Relative Humidity: 94%
Pressure (altimeter): 30.00 in. Hg (1016 hPa)
ob: OEDF 050500Z 34005KT 9999 FEW040 SCT100 22/21 Q1016 RERA NOSIG
cycle: 5

Station Type Date Time Source
OEDF TAF 2020/12/05 06:33 UTC NOAA

TAF TAF OEDF 050300Z 0506/0612 33008KT 8000 FEW040 SCT100 PROB30
TEMPO 0506/0510 VRB18KT -TSRA FEW030CB
BECMG 0510/0512 04012KT

Example: see airport list